sensor_id;sensor_type;location;lat;lon;timestamp;temperature;humidity
59067;DHT22;44854;50.838;4.438;2024-01-06T05:49:05;7.70;99.90
59067;DHT22;44854;50.838;4.438;2024-01-06T05:51:31;7.80;99.90
59067;DHT22;44854;50.838;4.438;2024-01-06T05:53:57;8.00;99.90
59067;DHT22;44854;50.838;4.438;2024-01-06T05:56:26;8.10;99.90
59067;DHT22;44854;50.838;4.438;2024-01-06T05:58:53;8.00;99.90
59067;DHT22;44854;50.838;4.438;2024-01-06T06:01:19;8.00;99.90
59067;DHT22;44854;50.838;4.438;2024-01-06T06:03:46;7.90;99.90
59067;DHT22;44854;50.838;4.438;2024-01-06T06:06:12;7.80;99.90
59067;DHT22;44854;50.838;4.438;2024-01-06T06:08:37;7.80;99.90
59067;DHT22;44854;50.838;4.438;2024-01-06T06:11:03;7.80;99.90
59067;DHT22;44854;50.838;4.438;2024-01-06T06:13:37;7.70;99.90
59067;DHT22;44854;50.838;4.438;2024-01-06T06:16:04;7.80;99.90
59067;DHT22;44854;50.838;4.438;2024-01-06T06:18:30;7.70;99.90
59067;DHT22;44854;50.838;4.438;2024-01-06T06:20:55;7.70;99.90
59067;DHT22;44854;50.838;4.438;2024-01-06T06:23:21;7.60;99.90
59067;DHT22;44854;50.838;4.438;2024-01-06T06:25:47;7.70;99.90
59067;DHT22;44854;50.838;4.438;2024-01-06T06:28:13;7.70;99.90
59067;DHT22;44854;50.838;4.438;2024-01-06T06:30:39;7.60;99.90
59067;DHT22;44854;50.838;4.438;2024-01-06T06:33:04;7.60;99.90
59067;DHT22;44854;50.838;4.438;2024-01-06T06:35:30;7.70;99.90
59067;DHT22;44854;50.838;4.438;2024-01-06T06:37:56;7.80;99.90
59067;DHT22;44854;50.838;4.438;2024-01-06T06:40:21;7.80;99.90
59067;DHT22;44854;50.838;4.438;2024-01-06T06:42:47;7.80;99.90
59067;DHT22;44854;50.838;4.438;2024-01-06T06:45:13;7.80;99.90
59067;DHT22;44854;50.838;4.438;2024-01-06T06:47:39;7.80;99.90
59067;DHT22;44854;50.838;4.438;2024-01-06T06:50:05;7.80;99.90
59067;DHT22;44854;50.838;4.438;2024-01-06T06:52:30;7.80;99.90
59067;DHT22;44854;50.838;4.438;2024-01-06T06:54:56;7.60;99.90
59067;DHT22;44854;50.838;4.438;2024-01-06T06:57:23;7.50;99.90
59067;DHT22;44854;50.838;4.438;2024-01-06T06:59:49;7.60;99.90
59067;DHT22;44854;50.838;4.438;2024-01-06T07:02:15;7.60;99.90
59067;DHT22;44854;50.838;4.438;2024-01-06T07:04:41;7.60;99.90
59067;DHT22;44854;50.838;4.438;2024-01-06T07:07:06;7.60;99.90
59067;DHT22;44854;50.838;4.438;2024-01-06T07:09:32;7.80;99.90
59067;DHT22;44854;50.838;4.438;2024-01-06T07:11:58;7.70;99.90
59067;DHT22;44854;50.838;4.438;2024-01-06T07:14:23;7.70;99.90
59067;DHT22;44854;50.838;4.438;2024-01-06T07:16:49;7.70;99.90
59067;DHT22;44854;50.838;4.438;2024-01-06T07:19:15;7.60;99.90
59067;DHT22;44854;50.838;4.438;2024-01-06T07:21:40;7.70;99.90
59067;DHT22;44854;50.838;4.438;2024-01-06T07:24:06;7.60;99.90
59067;DHT22;44854;50.838;4.438;2024-01-06T07:26:32;7.60;99.90
59067;DHT22;44854;50.838;4.438;2024-01-06T07:28:57;7.50;99.90
59067;DHT22;44854;50.838;4.438;2024-01-06T07:31:23;7.40;99.90
59067;DHT22;44854;50.838;4.438;2024-01-06T07:33:49;7.50;99.90
59067;DHT22;44854;50.838;4.438;2024-01-06T07:36:14;7.30;99.90
59067;DHT22;44854;50.838;4.438;2024-01-06T07:38:41;7.10;99.90
59067;DHT22;44854;50.838;4.438;2024-01-06T07:41:07;7.20;99.90
59067;DHT22;44854;50.838;4.438;2024-01-06T07:43:33;7.20;99.90
59067;DHT22;44854;50.838;4.438;2024-01-06T07:45:58;7.30;99.90
59067;DHT22;44854;50.838;4.438;2024-01-06T07:48:25;7.30;99.90
59067;DHT22;44854;50.838;4.438;2024-01-06T07:50:50;7.40;99.90
59067;DHT22;44854;50.838;4.438;2024-01-06T07:53:16;7.50;99.90
59067;DHT22;44854;50.838;4.438;2024-01-06T07:55:42;7.50;99.90
59067;DHT22;44854;50.838;4.438;2024-01-06T07:58:08;7.40;99.90
59067;DHT22;44854;50.838;4.438;2024-01-06T08:00:33;7.40;99.90
59067;DHT22;44854;50.838;4.438;2024-01-06T08:02:59;7.40;99.90
59067;DHT22;44854;50.838;4.438;2024-01-06T08:05:25;7.40;99.90
59067;DHT22;44854;50.838;4.438;2024-01-06T08:07:51;7.40;99.90
59067;DHT22;44854;50.838;4.438;2024-01-06T08:10:17;7.50;99.90
59067;DHT22;44854;50.838;4.438;2024-01-06T08:12:43;7.50;99.90
59067;DHT22;44854;50.838;4.438;2024-01-06T08:15:09;7.60;99.90
59067;DHT22;44854;50.838;4.438;2024-01-06T08:17:35;7.50;99.90
59067;DHT22;44854;50.838;4.438;2024-01-06T08:20:02;7.40;99.90
59067;DHT22;44854;50.838;4.438;2024-01-06T08:22:29;7.30;99.90
59067;DHT22;44854;50.838;4.438;2024-01-06T08:24:54;7.20;99.90
59067;DHT22;44854;50.838;4.438;2024-01-06T08:27:20;7.20;99.90
59067;DHT22;44854;50.838;4.438;2024-01-06T08:29:47;7.30;99.90
59067;DHT22;44854;50.838;4.438;2024-01-06T08:32:13;7.30;99.90
59067;DHT22;44854;50.838;4.438;2024-01-06T08:34:40;7.00;99.90
59067;DHT22;44854;50.838;4.438;2024-01-06T08:37:06;7.00;99.90
59067;DHT22;44854;50.838;4.438;2024-01-06T08:39:32;7.10;99.90
59067;DHT22;44854;50.838;4.438;2024-01-06T08:41:57;7.20;99.90
59067;DHT22;44854;50.838;4.438;2024-01-06T08:44:24;7.10;99.90
59067;DHT22;44854;50.838;4.438;2024-01-06T08:46:49;7.30;99.90
59067;DHT22;44854;50.838;4.438;2024-01-06T08:49:15;7.40;99.90
59067;DHT22;44854;50.838;4.438;2024-01-06T08:51:41;7.40;99.90
59067;DHT22;44854;50.838;4.438;2024-01-06T08:54:07;7.20;99.90
59067;DHT22;44854;50.838;4.438;2024-01-06T08:56:34;7.30;99.90
59067;DHT22;44854;50.838;4.438;2024-01-06T08:59:00;7.40;99.90
59067;DHT22;44854;50.838;4.438;2024-01-06T09:01:25;7.30;99.90
59067;DHT22;44854;50.838;4.438;2024-01-06T09:03:51;7.30;99.90
59067;DHT22;44854;50.838;4.438;2024-01-06T09:06:17;7.40;99.90
59067;DHT22;44854;50.838;4.438;2024-01-06T09:08:42;7.20;99.90
59067;DHT22;44854;50.838;4.438;2024-01-06T09:11:08;7.30;99.90
59067;DHT22;44854;50.838;4.438;2024-01-06T09:13:34;7.30;99.90
59067;DHT22;44854;50.838;4.438;2024-01-06T09:16:00;7.20;99.90
59067;DHT22;44854;50.838;4.438;2024-01-06T09:18:28;7.30;99.90
59067;DHT22;44854;50.838;4.438;2024-01-06T09:20:58;7.30;99.90
59067;DHT22;44854;50.838;4.438;2024-01-06T09:23:24;7.20;99.90
59067;DHT22;44854;50.838;4.438;2024-01-06T09:25:49;7.20;99.90
59067;DHT22;44854;50.838;4.438;2024-01-06T09:28:17;7.30;99.90
59067;DHT22;44854;50.838;4.438;2024-01-06T09:30:43;7.30;99.90
59067;DHT22;44854;50.838;4.438;2024-01-06T09:33:08;7.30;99.90
59067;DHT22;44854;50.838;4.438;2024-01-06T09:35:34;7.20;99.90
59067;DHT22;44854;50.838;4.438;2024-01-06T09:38:00;7.20;99.90
59067;DHT22;44854;50.838;4.438;2024-01-06T09:40:26;7.20;99.90
59067;DHT22;44854;50.838;4.438;2024-01-06T09:42:52;7.30;99.90
59067;DHT22;44854;50.838;4.438;2024-01-06T09:45:19;7.30;99.90
59067;DHT22;44854;50.838;4.438;2024-01-06T09:47:50;7.20;99.90
59067;DHT22;44854;50.838;4.438;2024-01-06T09:50:18;7.30;99.90
59067;DHT22;44854;50.838;4.438;2024-01-06T09:52:46;7.30;99.90
59067;DHT22;44854;50.838;4.438;2024-01-06T09:55:23;7.10;99.90
59067;DHT22;44854;50.838;4.438;2024-01-06T09:57:49;6.90;99.90
59067;DHT22;44854;50.838;4.438;2024-01-06T10:00:17;6.90;99.90
59067;DHT22;44854;50.838;4.438;2024-01-06T10:02:43;6.80;99.90
59067;DHT22;44854;50.838;4.438;2024-01-06T10:05:09;6.60;99.90
59067;DHT22;44854;50.838;4.438;2024-01-06T10:07:37;6.70;99.90
59067;DHT22;44854;50.838;4.438;2024-01-06T10:10:03;6.80;99.90
59067;DHT22;44854;50.838;4.438;2024-01-06T10:12:28;6.80;99.90
59067;DHT22;44854;50.838;4.438;2024-01-06T10:14:54;6.80;99.90
59067;DHT22;44854;50.838;4.438;2024-01-06T10:17:20;7.00;99.90
59067;DHT22;44854;50.838;4.438;2024-01-06T10:19:46;7.00;99.90
59067;DHT22;44854;50.838;4.438;2024-01-06T10:22:13;7.00;99.90
59067;DHT22;44854;50.838;4.438;2024-01-06T10:24:39;6.90;99.90
59067;DHT22;44854;50.838;4.438;2024-01-06T10:27:05;6.90;99.90
59067;DHT22;44854;50.838;4.438;2024-01-06T10:29:30;7.00;99.90
59067;DHT22;44854;50.838;4.438;2024-01-06T10:31:58;6.90;99.90
59067;DHT22;44854;50.838;4.438;2024-01-06T10:34:24;6.90;99.90
59067;DHT22;44854;50.838;4.438;2024-01-06T10:36:50;6.90;99.90
59067;DHT22;44854;50.838;4.438;2024-01-06T10:39:18;6.80;99.90
59067;DHT22;44854;50.838;4.438;2024-01-06T10:41:44;6.80;99.90
59067;DHT22;44854;50.838;4.438;2024-01-06T10:44:11;6.70;99.90
59067;DHT22;44854;50.838;4.438;2024-01-06T10:46:38;6.60;99.90
59067;DHT22;44854;50.838;4.438;2024-01-06T10:49:05;6.60;99.90
59067;DHT22;44854;50.838;4.438;2024-01-06T10:51:34;6.60;99.90
59067;DHT22;44854;50.838;4.438;2024-01-06T10:54:02;6.60;99.90
59067;DHT22;44854;50.838;4.438;2024-01-06T10:56:29;6.70;99.90
59067;DHT22;44854;50.838;4.438;2024-01-06T10:58:56;6.70;99.90
59067;DHT22;44854;50.838;4.438;2024-01-06T11:01:24;6.60;99.90
59067;DHT22;44854;50.838;4.438;2024-01-06T11:03:49;6.50;99.90
59067;DHT22;44854;50.838;4.438;2024-01-06T11:06:17;6.60;99.90
59067;DHT22;44854;50.838;4.438;2024-01-06T11:09:19;6.80;99.90
59067;DHT22;44854;50.838;4.438;2024-01-06T11:11:47;6.90;99.90
59067;DHT22;44854;50.838;4.438;2024-01-06T11:14:27;6.80;99.90
59067;DHT22;44854;50.838;4.438;2024-01-06T11:16:57;6.80;99.90
59067;DHT22;44854;50.838;4.438;2024-01-06T11:19:42;6.80;99.90
59067;DHT22;44854;50.838;4.438;2024-01-06T11:22:29;7.00;99.90
59067;DHT22;44854;50.838;4.438;2024-01-06T11:25:07;6.90;99.90
59067;DHT22;44854;50.838;4.438;2024-01-06T11:27:34;6.90;99.90
59067;DHT22;44854;50.838;4.438;2024-01-06T11:30:02;6.70;99.90
59067;DHT22;44854;50.838;4.438;2024-01-06T11:32:36;6.60;99.90
59067;DHT22;44854;50.838;4.438;2024-01-06T11:35:16;6.60;99.90
59067;DHT22;44854;50.838;4.438;2024-01-06T11:42:47;6.90;99.90
59067;DHT22;44854;50.838;4.438;2024-01-06T11:45:14;7.10;99.90
59067;DHT22;44854;50.838;4.438;2024-01-06T11:47:48;6.80;99.90
59067;DHT22;44854;50.838;4.438;2024-01-06T11:50:16;6.90;99.90
59067;DHT22;44854;50.838;4.438;2024-01-06T11:52:41;6.70;99.90
59067;DHT22;44854;50.838;4.438;2024-01-06T11:55:08;6.70;99.90
59067;DHT22;44854;50.838;4.438;2024-01-06T11:57:34;6.80;99.90
59067;DHT22;44854;50.838;4.438;2024-01-06T12:00:00;6.80;99.90
59067;DHT22;44854;50.838;4.438;2024-01-06T12:02:26;6.90;99.90
59067;DHT22;44854;50.838;4.438;2024-01-06T12:04:52;6.70;99.90
59067;DHT22;44854;50.838;4.438;2024-01-06T12:07:19;6.50;99.90
59067;DHT22;44854;50.838;4.438;2024-01-06T12:09:49;6.40;99.90
59067;DHT22;44854;50.838;4.438;2024-01-06T12:12:18;6.40;99.90
59067;DHT22;44854;50.838;4.438;2024-01-06T12:14:44;6.40;99.90
59067;DHT22;44854;50.838;4.438;2024-01-06T12:17:11;6.30;99.90
59067;DHT22;44854;50.838;4.438;2024-01-06T12:19:39;6.40;99.90
59067;DHT22;44854;50.838;4.438;2024-01-06T12:22:09;6.30;99.90
59067;DHT22;44854;50.838;4.438;2024-01-06T12:24:35;6.40;99.90
59067;DHT22;44854;50.838;4.438;2024-01-06T12:27:01;6.40;99.90
59067;DHT22;44854;50.838;4.438;2024-01-06T12:29:27;6.50;99.90
59067;DHT22;44854;50.838;4.438;2024-01-06T12:31:54;6.70;99.90
59067;DHT22;44854;50.838;4.438;2024-01-06T12:34:21;6.60;99.90
59067;DHT22;44854;50.838;4.438;2024-01-06T12:36:47;6.80;99.90
59067;DHT22;44854;50.838;4.438;2024-01-06T12:39:13;6.90;99.90
59067;DHT22;44854;50.838;4.438;2024-01-06T12:41:42;6.70;99.90
59067;DHT22;44854;50.838;4.438;2024-01-06T12:44:09;6.70;99.90
59067;DHT22;44854;50.838;4.438;2024-01-06T12:46:35;6.60;99.90
59067;DHT22;44854;50.838;4.438;2024-01-06T12:49:01;6.60;99.90
59067;DHT22;44854;50.838;4.438;2024-01-06T12:51:27;6.50;99.90
59067;DHT22;44854;50.838;4.438;2024-01-06T12:53:54;6.60;99.90
59067;DHT22;44854;50.838;4.438;2024-01-06T12:56:19;6.70;99.90
59067;DHT22;44854;50.838;4.438;2024-01-06T12:58:48;6.80;99.90
59067;DHT22;44854;50.838;4.438;2024-01-06T13:01:14;6.50;99.90
59067;DHT22;44854;50.838;4.438;2024-01-06T13:03:39;6.30;99.90
59067;DHT22;44854;50.838;4.438;2024-01-06T13:06:05;6.30;99.90
59067;DHT22;44854;50.838;4.438;2024-01-06T13:08:31;6.40;99.90
59067;DHT22;44854;50.838;4.438;2024-01-06T13:10:57;6.50;99.90
59067;DHT22;44854;50.838;4.438;2024-01-06T13:13:26;6.50;99.90
59067;DHT22;44854;50.838;4.438;2024-01-06T13:15:51;6.60;99.90
59067;DHT22;44854;50.838;4.438;2024-01-06T13:18:17;6.70;99.90
59067;DHT22;44854;50.838;4.438;2024-01-06T13:20:43;6.90;99.90
59067;DHT22;44854;50.838;4.438;2024-01-06T13:23:09;6.90;99.90
59067;DHT22;44854;50.838;4.438;2024-01-06T13:25:37;6.80;99.90
59067;DHT22;44854;50.838;4.438;2024-01-06T13:28:05;6.80;99.90
59067;DHT22;44854;50.838;4.438;2024-01-06T13:30:31;6.90;99.90
59067;DHT22;44854;50.838;4.438;2024-01-06T13:32:57;6.90;99.90
59067;DHT22;44854;50.838;4.438;2024-01-06T13:35:24;6.90;99.90
59067;DHT22;44854;50.838;4.438;2024-01-06T13:37:53;7.00;99.90
59067;DHT22;44854;50.838;4.438;2024-01-06T13:40:21;7.00;99.90
59067;DHT22;44854;50.838;4.438;2024-01-06T13:42:48;7.00;99.90
59067;DHT22;44854;50.838;4.438;2024-01-06T13:45:17;7.00;99.90
59067;DHT22;44854;50.838;4.438;2024-01-06T13:47:46;6.90;99.90
59067;DHT22;44854;50.838;4.438;2024-01-06T13:50:13;6.80;99.90
59067;DHT22;44854;50.838;4.438;2024-01-06T13:52:39;6.80;99.90
59067;DHT22;44854;50.838;4.438;2024-01-06T13:55:05;6.80;99.90
59067;DHT22;44854;50.838;4.438;2024-01-06T13:57:32;6.70;99.90
59067;DHT22;44854;50.838;4.438;2024-01-06T14:00:01;6.90;99.90
59067;DHT22;44854;50.838;4.438;2024-01-06T14:02:32;6.90;99.90
59067;DHT22;44854;50.838;4.438;2024-01-06T14:04:58;6.80;99.90
59067;DHT22;44854;50.838;4.438;2024-01-06T14:07:25;6.90;99.90
59067;DHT22;44854;50.838;4.438;2024-01-06T14:09:51;6.80;99.90
59067;DHT22;44854;50.838;4.438;2024-01-06T14:12:18;6.80;99.90
59067;DHT22;44854;50.838;4.438;2024-01-06T14:14:44;6.80;99.90
59067;DHT22;44854;50.838;4.438;2024-01-06T14:17:11;6.60;99.90
59067;DHT22;44854;50.838;4.438;2024-01-06T14:19:40;6.60;99.90
59067;DHT22;44854;50.838;4.438;2024-01-06T14:22:05;6.70;99.90
59067;DHT22;44854;50.838;4.438;2024-01-06T14:24:31;6.80;99.90
59067;DHT22;44854;50.838;4.438;2024-01-06T14:26:57;6.80;99.90
59067;DHT22;44854;50.838;4.438;2024-01-06T14:29:23;6.80;99.90
59067;DHT22;44854;50.838;4.438;2024-01-06T14:31:48;6.90;99.90
59067;DHT22;44854;50.838;4.438;2024-01-06T14:34:17;6.80;99.90
59067;DHT22;44854;50.838;4.438;2024-01-06T14:36:43;6.80;99.90
59067;DHT22;44854;50.838;4.438;2024-01-06T14:39:16;6.80;99.90
59067;DHT22;44854;50.838;4.438;2024-01-06T14:41:42;6.70;99.90
59067;DHT22;44854;50.838;4.438;2024-01-06T14:44:10;6.50;99.90
59067;DHT22;44854;50.838;4.438;2024-01-06T14:46:37;6.60;99.90
59067;DHT22;44854;50.838;4.438;2024-01-06T14:49:03;6.40;99.90
59067;DHT22;44854;50.838;4.438;2024-01-06T14:51:29;6.40;99.90
59067;DHT22;44854;50.838;4.438;2024-01-06T14:53:54;6.40;99.90
59067;DHT22;44854;50.838;4.438;2024-01-06T14:56:24;6.40;99.90
59067;DHT22;44854;50.838;4.438;2024-01-06T14:58:49;6.50;99.90
59067;DHT22;44854;50.838;4.438;2024-01-06T15:01:15;6.50;99.90
59067;DHT22;44854;50.838;4.438;2024-01-06T15:03:41;6.40;99.90
59067;DHT22;44854;50.838;4.438;2024-01-06T15:06:07;6.40;99.90
59067;DHT22;44854;50.838;4.438;2024-01-06T15:08:33;6.50;99.90
59067;DHT22;44854;50.838;4.438;2024-01-06T15:10:59;6.40;99.90
59067;DHT22;44854;50.838;4.438;2024-01-06T15:13:25;6.60;99.90
59067;DHT22;44854;50.838;4.438;2024-01-06T15:15:54;6.60;99.90
59067;DHT22;44854;50.838;4.438;2024-01-06T15:18:19;6.40;99.90
59067;DHT22;44854;50.838;4.438;2024-01-06T15:20:46;6.50;99.90
59067;DHT22;44854;50.838;4.438;2024-01-06T15:23:12;6.50;99.90
59067;DHT22;44854;50.838;4.438;2024-01-06T15:25:38;6.50;99.90
59067;DHT22;44854;50.838;4.438;2024-01-06T15:28:05;6.50;99.90
59067;DHT22;44854;50.838;4.438;2024-01-06T15:30:34;6.50;99.90
59067;DHT22;44854;50.838;4.438;2024-01-06T15:33:00;6.50;99.90
59067;DHT22;44854;50.838;4.438;2024-01-06T15:35:26;6.40;99.90
59067;DHT22;44854;50.838;4.438;2024-01-06T15:37:52;6.50;99.90
59067;DHT22;44854;50.838;4.438;2024-01-06T15:40:17;6.50;99.90
59067;DHT22;44854;50.838;4.438;2024-01-06T15:42:43;6.40;99.90
59067;DHT22;44854;50.838;4.438;2024-01-06T15:45:09;6.50;99.90
59067;DHT22;44854;50.838;4.438;2024-01-06T15:47:37;6.60;99.90
59067;DHT22;44854;50.838;4.438;2024-01-06T15:50:03;6.50;99.90
59067;DHT22;44854;50.838;4.438;2024-01-06T15:52:30;6.60;99.90
59067;DHT22;44854;50.838;4.438;2024-01-06T15:54:56;6.60;99.90
59067;DHT22;44854;50.838;4.438;2024-01-06T15:57:22;6.70;99.90
59067;DHT22;44854;50.838;4.438;2024-01-06T15:59:47;6.60;99.90
59067;DHT22;44854;50.838;4.438;2024-01-06T16:02:13;6.50;99.90
59067;DHT22;44854;50.838;4.438;2024-01-06T16:04:39;6.40;99.90
59067;DHT22;44854;50.838;4.438;2024-01-06T16:07:04;6.40;99.90
59067;DHT22;44854;50.838;4.438;2024-01-06T16:09:33;6.40;99.90
59067;DHT22;44854;50.838;4.438;2024-01-06T16:11:58;6.50;99.90
59067;DHT22;44854;50.838;4.438;2024-01-06T16:14:25;6.40;99.90
59067;DHT22;44854;50.838;4.438;2024-01-06T16:16:54;6.50;99.90
59067;DHT22;44854;50.838;4.438;2024-01-06T16:19:20;6.50;99.90
59067;DHT22;44854;50.838;4.438;2024-01-06T16:21:46;6.50;99.90
59067;DHT22;44854;50.838;4.438;2024-01-06T16:24:12;6.60;99.90
59067;DHT22;44854;50.838;4.438;2024-01-06T16:26:38;6.50;99.90
59067;DHT22;44854;50.838;4.438;2024-01-06T16:29:04;6.70;99.90
59067;DHT22;44854;50.838;4.438;2024-01-06T16:31:30;6.60;99.90
59067;DHT22;44854;50.838;4.438;2024-01-06T16:33:56;6.60;99.90
59067;DHT22;44854;50.838;4.438;2024-01-06T16:36:22;6.70;99.90
59067;DHT22;44854;50.838;4.438;2024-01-06T16:38:49;6.60;99.90
59067;DHT22;44854;50.838;4.438;2024-01-06T16:41:15;6.60;99.90
59067;DHT22;44854;50.838;4.438;2024-01-06T16:43:42;6.70;99.90
59067;DHT22;44854;50.838;4.438;2024-01-06T16:46:07;6.60;99.90
59067;DHT22;44854;50.838;4.438;2024-01-06T16:48:39;6.50;99.90
59067;DHT22;44854;50.838;4.438;2024-01-06T16:51:05;6.60;99.90
59067;DHT22;44854;50.838;4.438;2024-01-06T16:53:30;6.50;99.90
59067;DHT22;44854;50.838;4.438;2024-01-06T16:55:56;6.30;99.90
59067;DHT22;44854;50.838;4.438;2024-01-06T16:58:22;6.30;99.90
59067;DHT22;44854;50.838;4.438;2024-01-06T17:00:48;6.30;99.90
59067;DHT22;44854;50.838;4.438;2024-01-06T17:03:13;6.30;99.90
59067;DHT22;44854;50.838;4.438;2024-01-06T17:05:40;6.30;99.90
59067;DHT22;44854;50.838;4.438;2024-01-06T17:08:05;6.40;99.90
59067;DHT22;44854;50.838;4.438;2024-01-06T17:10:31;6.30;99.90
59067;DHT22;44854;50.838;4.438;2024-01-06T17:12:57;6.30;99.90
59067;DHT22;44854;50.838;4.438;2024-01-06T17:15:23;6.40;99.90
59067;DHT22;44854;50.838;4.438;2024-01-06T17:17:51;6.20;99.90
59067;DHT22;44854;50.838;4.438;2024-01-06T17:20:17;6.20;99.90
59067;DHT22;44854;50.838;4.438;2024-01-06T17:22:42;6.20;99.90
59067;DHT22;44854;50.838;4.438;2024-01-06T17:25:10;6.20;99.90
59067;DHT22;44854;50.838;4.438;2024-01-06T17:27:39;6.20;99.90
59067;DHT22;44854;50.838;4.438;2024-01-06T17:30:05;6.20;99.90
59067;DHT22;44854;50.838;4.438;2024-01-06T17:32:32;6.20;99.90
59067;DHT22;44854;50.838;4.438;2024-01-06T17:34:59;6.20;99.90
59067;DHT22;44854;50.838;4.438;2024-01-06T17:37:24;6.20;99.90
59067;DHT22;44854;50.838;4.438;2024-01-06T17:39:50;6.30;99.90
59067;DHT22;44854;50.838;4.438;2024-01-06T17:42:16;6.10;99.90
59067;DHT22;44854;50.838;4.438;2024-01-06T17:44:42;6.10;99.90
59067;DHT22;44854;50.838;4.438;2024-01-06T17:47:11;6.10;99.90
59067;DHT22;44854;50.838;4.438;2024-01-06T17:49:37;6.20;99.90
59067;DHT22;44854;50.838;4.438;2024-01-06T17:52:03;6.00;99.90
59067;DHT22;44854;50.838;4.438;2024-01-06T17:54:28;6.00;99.90
59067;DHT22;44854;50.838;4.438;2024-01-06T17:56:56;6.00;99.90
59067;DHT22;44854;50.838;4.438;2024-01-06T17:59:21;6.10;99.90
59067;DHT22;44854;50.838;4.438;2024-01-06T18:01:47;6.10;99.90
59067;DHT22;44854;50.838;4.438;2024-01-06T18:04:13;6.20;99.90
59067;DHT22;44854;50.838;4.438;2024-01-06T18:06:39;6.20;99.90
59067;DHT22;44854;50.838;4.438;2024-01-06T18:09:05;6.20;99.90
59067;DHT22;44854;50.838;4.438;2024-01-06T18:11:31;6.30;99.90
59067;DHT22;44854;50.838;4.438;2024-01-06T18:13:57;6.20;99.90
59067;DHT22;44854;50.838;4.438;2024-01-06T18:16:23;6.30;99.90
59067;DHT22;44854;50.838;4.438;2024-01-06T18:18:49;6.30;99.90
59067;DHT22;44854;50.838;4.438;2024-01-06T18:21:14;6.20;99.90
59067;DHT22;44854;50.838;4.438;2024-01-06T18:23:40;6.10;99.90
59067;DHT22;44854;50.838;4.438;2024-01-06T18:26:06;6.20;99.90
59067;DHT22;44854;50.838;4.438;2024-01-06T18:28:32;6.20;99.90
59067;DHT22;44854;50.838;4.438;2024-01-06T18:30:58;6.10;99.90
59067;DHT22;44854;50.838;4.438;2024-01-06T18:33:23;6.10;99.90
59067;DHT22;44854;50.838;4.438;2024-01-06T18:35:49;6.20;99.90
59067;DHT22;44854;50.838;4.438;2024-01-06T18:38:15;6.10;99.90
59067;DHT22;44854;50.838;4.438;2024-01-06T18:40:41;6.10;99.90
59067;DHT22;44854;50.838;4.438;2024-01-06T18:43:06;6.20;99.90
59067;DHT22;44854;50.838;4.438;2024-01-06T18:45:32;6.30;99.90
59067;DHT22;44854;50.838;4.438;2024-01-06T18:47:58;6.30;99.90
59067;DHT22;44854;50.838;4.438;2024-01-06T18:50:24;6.40;99.90
59067;DHT22;44854;50.838;4.438;2024-01-06T18:52:49;6.50;99.90
59067;DHT22;44854;50.838;4.438;2024-01-06T18:55:15;6.40;99.90
59067;DHT22;44854;50.838;4.438;2024-01-06T18:57:41;6.40;99.90
59067;DHT22;44854;50.838;4.438;2024-01-06T19:00:08;6.40;99.90
59067;DHT22;44854;50.838;4.438;2024-01-06T19:02:34;6.40;99.90
59067;DHT22;44854;50.838;4.438;2024-01-06T19:05:00;6.40;99.90
59067;DHT22;44854;50.838;4.438;2024-01-06T19:07:27;6.30;99.90
59067;DHT22;44854;50.838;4.438;2024-01-06T19:09:53;6.40;99.90
59067;DHT22;44854;50.838;4.438;2024-01-06T19:12:19;6.50;99.90
59067;DHT22;44854;50.838;4.438;2024-01-06T19:14:44;6.40;99.90
59067;DHT22;44854;50.838;4.438;2024-01-06T19:17:12;6.40;99.90
59067;DHT22;44854;50.838;4.438;2024-01-06T19:19:37;6.40;99.90
59067;DHT22;44854;50.838;4.438;2024-01-06T19:22:05;6.30;99.90
59067;DHT22;44854;50.838;4.438;2024-01-06T19:24:31;6.10;99.90
59067;DHT22;44854;50.838;4.438;2024-01-06T19:26:57;6.20;99.90
59067;DHT22;44854;50.838;4.438;2024-01-06T19:29:23;6.20;99.90
59067;DHT22;44854;50.838;4.438;2024-01-06T19:31:53;6.30;99.90
59067;DHT22;44854;50.838;4.438;2024-01-06T19:34:18;6.20;99.90
59067;DHT22;44854;50.838;4.438;2024-01-06T19:36:44;6.20;99.90
59067;DHT22;44854;50.838;4.438;2024-01-06T19:39:09;6.20;99.90
59067;DHT22;44854;50.838;4.438;2024-01-06T19:41:35;6.10;99.90
59067;DHT22;44854;50.838;4.438;2024-01-06T19:44:04;6.20;99.90
59067;DHT22;44854;50.838;4.438;2024-01-06T19:46:33;6.30;99.90
59067;DHT22;44854;50.838;4.438;2024-01-06T19:49:03;6.20;99.90
59067;DHT22;44854;50.838;4.438;2024-01-06T19:51:29;6.20;99.90
59067;DHT22;44854;50.838;4.438;2024-01-06T19:53:55;6.30;99.90
59067;DHT22;44854;50.838;4.438;2024-01-06T19:56:20;6.30;99.90
59067;DHT22;44854;50.838;4.438;2024-01-06T19:58:46;6.20;99.90
59067;DHT22;44854;50.838;4.438;2024-01-06T20:01:12;6.20;99.90
59067;DHT22;44854;50.838;4.438;2024-01-06T20:03:37;6.20;99.90
59067;DHT22;44854;50.838;4.438;2024-01-06T20:06:04;6.20;99.90
59067;DHT22;44854;50.838;4.438;2024-01-06T20:08:30;6.20;99.90
59067;DHT22;44854;50.838;4.438;2024-01-06T20:10:58;6.10;99.90
59067;DHT22;44854;50.838;4.438;2024-01-06T20:13:26;6.10;99.90
59067;DHT22;44854;50.838;4.438;2024-01-06T20:15:53;6.00;99.90
59067;DHT22;44854;50.838;4.438;2024-01-06T20:18:20;5.90;99.90
59067;DHT22;44854;50.838;4.438;2024-01-06T20:20:47;6.00;99.90
59067;DHT22;44854;50.838;4.438;2024-01-06T20:23:13;6.00;99.90
59067;DHT22;44854;50.838;4.438;2024-01-06T20:25:38;5.90;99.90
59067;DHT22;44854;50.838;4.438;2024-01-06T20:28:08;5.90;99.90
59067;DHT22;44854;50.838;4.438;2024-01-06T20:30:34;5.80;99.90
59067;DHT22;44854;50.838;4.438;2024-01-06T20:32:59;5.80;99.90
59067;DHT22;44854;50.838;4.438;2024-01-06T20:35:25;5.70;99.90
59067;DHT22;44854;50.838;4.438;2024-01-06T20:37:51;5.70;99.90
59067;DHT22;44854;50.838;4.438;2024-01-06T20:40:18;5.60;99.90
59067;DHT22;44854;50.838;4.438;2024-01-06T20:42:45;5.60;99.90
59067;DHT22;44854;50.838;4.438;2024-01-06T20:45:10;5.50;99.90
59067;DHT22;44854;50.838;4.438;2024-01-06T20:47:36;5.50;99.90
59067;DHT22;44854;50.838;4.438;2024-01-06T20:50:02;5.50;99.90
59067;DHT22;44854;50.838;4.438;2024-01-06T20:52:28;5.50;99.90
59067;DHT22;44854;50.838;4.438;2024-01-06T20:54:54;5.60;99.90
59067;DHT22;44854;50.838;4.438;2024-01-06T20:57:20;5.40;99.90
59067;DHT22;44854;50.838;4.438;2024-01-06T20:59:46;5.50;99.90
59067;DHT22;44854;50.838;4.438;2024-01-06T21:02:12;5.40;99.90
59067;DHT22;44854;50.838;4.438;2024-01-06T21:04:39;5.40;99.90
59067;DHT22;44854;50.838;4.438;2024-01-06T21:07:04;5.30;99.90
59067;DHT22;44854;50.838;4.438;2024-01-06T21:09:30;5.20;99.90
59067;DHT22;44854;50.838;4.438;2024-01-06T21:11:56;5.10;99.90
59067;DHT22;44854;50.838;4.438;2024-01-06T21:14:21;5.10;99.90
59067;DHT22;44854;50.838;4.438;2024-01-06T21:16:47;5.00;99.90
59067;DHT22;44854;50.838;4.438;2024-01-06T21:19:16;5.00;99.90
59067;DHT22;44854;50.838;4.438;2024-01-06T21:21:43;4.90;99.90
59067;DHT22;44854;50.838;4.438;2024-01-06T21:24:11;5.00;99.90
59067;DHT22;44854;50.838;4.438;2024-01-06T21:26:37;5.00;99.90
59067;DHT22;44854;50.838;4.438;2024-01-06T21:29:03;5.00;99.90
59067;DHT22;44854;50.838;4.438;2024-01-06T21:31:31;4.90;99.90
59067;DHT22;44854;50.838;4.438;2024-01-06T21:33:57;5.00;99.90